Time;durP1;ratioP1;P1;durP2;ratioP2;P2;SDS_P1;SDS_P2;PMS_P1;PMS_P2;Temp;Humidity;BMP_temperature;BMP_pressure;BME280_temperature;BME280_humidity;BME280_pressure;Samples;Min_cycle;Max_cycle;Signal;HPM_P1;HPM_P2
2022/04/20 00:01:49;;;;;;;5.68;2.97;;;;;;;;;;4917214;29;20549;-83
2022/04/20 00:04:15;;;;;;;4.63;2.65;;;;;;;;;;4902160;29;20431;-83
2022/04/20 00:06:42;;;;;;;6.25;2.70;;;;;;;;;;4898268;29;20060;-83
2022/04/20 00:09:08;;;;;;;10.38;3.20;;;;;;;;;;4895676;29;20046;-83
2022/04/20 00:11:34;;;;;;;3.92;2.88;;;;;;;;;;4913832;29;20420;-82
2022/04/20 00:14:00;;;;;;;6.70;2.60;;;;;;;;;;4893285;29;20051;-83
2022/04/20 00:16:26;;;;;;;6.18;2.90;;;;;;;;;;4908238;29;20120;-83
2022/04/20 00:18:52;;;;;;;4.30;2.60;;;;;;;;;;4880093;29;20043;-83
2022/04/20 00:21:18;;;;;;;7.57;3.78;;;;;;;;;;4917426;29;20428;-85
2022/04/20 00:23:44;;;;;;;4.57;2.80;;;;;;;;;;4910171;29;20580;-84
2022/04/20 00:26:10;;;;;;;3.50;2.53;;;;;;;;;;4914837;29;20075;-84
2022/04/20 00:28:36;;;;;;;5.75;2.72;;;;;;;;;;4917151;29;20044;-83
2022/04/20 00:31:03;;;;;;;4.95;2.65;;;;;;;;;;4895787;29;20114;-84
2022/04/20 00:33:29;;;;;;;3.65;2.50;;;;;;;;;;4914310;29;20496;-83
2022/04/20 00:35:55;;;;;;;5.95;2.50;;;;;;;;;;4896976;29;20458;-84
2022/04/20 00:38:21;;;;;;;6.63;2.80;;;;;;;;;;4894338;29;20059;-83
2022/04/20 00:40:50;;;;;;;8.70;2.85;;;;;;;;;;4897481;29;20036;-84
2022/04/20 00:43:17;;;;;;;3.20;2.65;;;;;;;;;;4875971;29;20060;-84
2022/04/20 00:45:44;;;;;;;4.55;2.60;;;;;;;;;;4910521;29;20052;-83
2022/04/20 00:48:14;;;;;;;4.65;2.70;;;;;;;;;;4911172;29;20052;-83
2022/04/20 00:50:41;;;;;;;3.92;2.83;;;;;;;;;;4909497;29;20081;-83
2022/04/20 00:53:07;;;;;;;3.55;2.70;;;;;;;;;;4880325;29;20512;-84
2022/04/20 00:55:33;;;;;;;6.20;3.25;;;;;;;;;;4912199;29;20445;-83
2022/04/20 00:57:59;;;;;;;3.50;2.58;;;;;;;;;;4913003;29;20123;-84
2022/04/20 01:00:27;;;;;;;6.80;2.75;;;;;;;;;;4897207;29;20046;-84
2022/04/20 01:02:53;;;;;;;3.90;2.90;;;;;;;;;;4911875;29;20062;-82
2022/04/20 01:05:21;;;;;;;2.85;2.47;;;;;;;;;;4912114;29;20087;-83
2022/04/20 01:07:48;;;;;;;4.00;2.90;;;;;;;;;;4916887;29;20054;-84
2022/04/20 01:10:15;;;;;;;5.38;3.38;;;;;;;;;;4881081;29;20408;-84
2022/04/20 01:12:45;;;;;;;6.72;2.78;;;;;;;;;;4911846;29;20052;-83
2022/04/20 01:15:21;;;;;;;3.67;2.67;;;;;;;;;;4899911;29;20143;-82
2022/04/20 01:17:47;;;;;;;3.65;2.92;;;;;;;;;;4896095;29;20040;-84
2022/04/20 01:20:14;;;;;;;3.22;2.45;;;;;;;;;;4915774;29;20051;-84
2022/04/20 01:22:41;;;;;;;4.90;2.97;;;;;;;;;;4883042;29;20163;-80
2022/04/20 01:25:07;;;;;;;3.85;2.97;;;;;;;;;;4893685;29;20031;-83
2022/04/20 01:27:34;;;;;;;5.18;2.85;;;;;;;;;;4921559;28;20039;-82
2022/04/20 01:30:00;;;;;;;4.30;2.60;;;;;;;;;;4912893;29;20051;-83
2022/04/20 01:32:26;;;;;;;5.72;2.60;;;;;;;;;;4901659;29;20036;-83
2022/04/20 01:34:52;;;;;;;8.48;3.20;;;;;;;;;;4931954;29;20039;-82
2022/04/20 01:37:19;;;;;;;5.47;2.85;;;;;;;;;;4891078;29;20047;-83
2022/04/20 01:39:45;;;;;;;4.80;2.75;;;;;;;;;;4882873;29;20162;-82
2022/04/20 01:42:11;;;;;;;4.32;2.78;;;;;;;;;;4908656;29;20076;-83
2022/04/20 01:44:37;;;;;;;3.55;2.70;;;;;;;;;;4912664;29;20039;-82
2022/04/20 01:47:04;;;;;;;3.67;2.60;;;;;;;;;;4899081;29;20052;-83
2022/04/20 01:49:30;;;;;;;3.08;2.67;;;;;;;;;;4912728;29;20076;-83
2022/04/20 01:51:56;;;;;;;4.20;2.95;;;;;;;;;;4918475;29;20040;-83
2022/04/20 01:54:22;;;;;;;4.13;3.00;;;;;;;;;;4913162;29;20040;-83
2022/04/20 01:56:49;;;;;;;3.72;3.00;;;;;;;;;;4898874;29;20048;-83
2022/04/20 01:59:15;;;;;;;3.78;2.78;;;;;;;;;;4913312;29;20086;-83
2022/04/20 02:04:27;;;;;;;3.45;3.10;;;;;;;;;;4901516;29;20039;-81
2022/04/20 02:06:53;;;;;;;3.58;2.83;;;;;;;;;;4899346;29;20040;-82
2022/04/20 02:09:20;;;;;;;5.97;2.83;;;;;;;;;;4896977;29;20060;-81
2022/04/20 02:11:46;;;;;;;5.95;2.97;;;;;;;;;;4883328;29;20039;-81
2022/04/20 02:14:13;;;;;;;3.60;2.88;;;;;;;;;;4884320;29;20420;-83
2022/04/20 02:16:39;;;;;;;3.67;2.88;;;;;;;;;;4896281;29;20063;-83
2022/04/20 02:19:05;;;;;;;3.10;2.70;;;;;;;;;;4874559;29;20044;-84
2022/04/20 02:21:31;;;;;;;5.53;3.17;;;;;;;;;;4916385;29;20103;-84
2022/04/20 02:23:57;;;;;;;3.35;2.80;;;;;;;;;;4914083;29;20036;-84
2022/04/20 02:26:23;;;;;;;5.15;2.80;;;;;;;;;;4910903;29;20426;-85
2022/04/20 02:28:49;;;;;;;4.00;3.10;;;;;;;;;;4917904;29;20489;-84
2022/04/20 02:31:16;;;;;;;7.15;2.85;;;;;;;;;;4918220;29;20126;-85
2022/04/20 02:33:43;;;;;;;9.43;2.90;;;;;;;;;;4904276;29;20052;-83
2022/04/20 02:36:09;;;;;;;6.15;2.83;;;;;;;;;;4898078;29;20884;-83
2022/04/20 02:38:35;;;;;;;3.58;2.78;;;;;;;;;;4919964;29;20043;-83
2022/04/20 02:41:01;;;;;;;5.55;2.75;;;;;;;;;;4913359;29;20048;-83
2022/04/20 02:43:28;;;;;;;3.72;2.78;;;;;;;;;;4913604;29;20044;-82
2022/04/20 02:45:55;;;;;;;3.28;2.75;;;;;;;;;;4918576;29;20035;-83
2022/04/20 02:48:21;;;;;;;4.40;2.70;;;;;;;;;;4916628;29;20043;-82
2022/04/20 02:50:47;;;;;;;7.22;2.50;;;;;;;;;;4915577;29;20040;-83
2022/04/20 02:53:13;;;;;;;5.28;2.78;;;;;;;;;;4917322;29;20055;-83
2022/04/20 02:55:42;;;;;;;3.00;2.53;;;;;;;;;;4912950;29;20040;-83
2022/04/20 02:58:08;;;;;;;3.88;2.70;;;;;;;;;;4910589;29;20134;-83
2022/04/20 03:00:34;;;;;;;3.95;3.03;;;;;;;;;;4896576;29;20048;-83
2022/04/20 03:03:00;;;;;;;5.72;2.92;;;;;;;;;;4884235;29;20144;-83
2022/04/20 03:05:26;;;;;;;3.88;2.92;;;;;;;;;;4917450;29;20035;-83
2022/04/20 03:07:52;;;;;;;4.72;3.03;;;;;;;;;;4899093;29;20044;-83
2022/04/20 03:10:18;;;;;;;4.78;3.35;;;;;;;;;;4885776;29;20103;-84
2022/04/20 03:12:44;;;;;;;6.70;3.55;;;;;;;;;;4912309;29;20047;-83
2022/04/20 03:15:12;;;;;;;6.30;3.63;;;;;;;;;;4876840;29;20083;-84
2022/04/20 03:17:41;;;;;;;4.40;3.03;;;;;;;;;;4914175;29;20059;-84
2022/04/20 03:20:07;;;;;;;3.75;3.22;;;;;;;;;;4882740;29;20122;-84
2022/04/20 03:22:34;;;;;;;4.90;3.42;;;;;;;;;;4866484;29;20044;-83
2022/04/20 03:25:00;;;;;;;4.72;3.13;;;;;;;;;;4882090;29;20040;-82
2022/04/20 03:27:26;;;;;;;5.20;3.28;;;;;;;;;;4914183;29;20050;-84
2022/04/20 03:29:52;;;;;;;5.65;3.88;;;;;;;;;;4910376;29;20123;-84
2022/04/20 03:32:18;;;;;;;4.07;3.00;;;;;;;;;;4900784;29;20088;-83
2022/04/20 03:34:44;;;;;;;6.15;3.38;;;;;;;;;;4901962;29;20063;-84
2022/04/20 03:37:10;;;;;;;8.95;3.17;;;;;;;;;;4916865;29;20497;-83
2022/04/20 03:39:37;;;;;;;4.50;3.45;;;;;;;;;;4900729;29;20512;-83
2022/04/20 03:42:04;;;;;;;7.43;3.20;;;;;;;;;;4914551;29;20044;-83
2022/04/20 03:44:30;;;;;;;4.97;3.53;;;;;;;;;;4889915;29;20508;-84
2022/04/20 03:46:56;;;;;;;7.65;3.13;;;;;;;;;;4910156;29;20089;-84
2022/04/20 03:49:22;;;;;;;4.75;3.15;;;;;;;;;;4896015;29;20512;-84
2022/04/20 03:51:48;;;;;;;5.55;3.38;;;;;;;;;;4898915;29;20472;-85
2022/04/20 03:54:14;;;;;;;6.32;3.10;;;;;;;;;;4896424;29;20051;-84
2022/04/20 03:59:25;;;;;;;4.55;3.38;;;;;;;;;;4893733;29;20044;-84
2022/04/20 04:01:51;;;;;;;4.93;3.63;;;;;;;;;;4899725;29;20134;-84
2022/04/20 04:04:18;;;;;;;6.50;3.55;;;;;;;;;;4889697;29;20048;-84
2022/04/20 04:06:44;;;;;;;4.55;3.20;;;;;;;;;;4902038;29;21897;-83
2022/04/20 04:09:13;;;;;;;5.55;3.17;;;;;;;;;;4915374;29;20058;-84
2022/04/20 04:11:39;;;;;;;5.63;3.40;;;;;;;;;;4878831;29;20055;-84
2022/04/20 04:14:05;;;;;;;4.88;3.47;;;;;;;;;;4914787;29;20512;-84
2022/04/20 04:16:36;;;;;;;7.10;3.47;;;;;;;;;;4896190;29;20094;-83
2022/04/20 04:19:03;;;;;;;7.45;4.18;;;;;;;;;;4905127;29;20179;-84
2022/04/20 04:21:29;;;;;;;6.35;3.28;;;;;;;;;;4909294;29;20495;-84
2022/04/20 04:23:55;;;;;;;5.03;3.53;;;;;;;;;;4890764;29;21149;-84
2022/04/20 04:26:22;;;;;;;5.38;3.47;;;;;;;;;;4900205;29;20719;-82
2022/04/20 04:28:48;;;;;;;9.32;3.70;;;;;;;;;;4908137;29;20159;-83
2022/04/20 04:31:14;;;;;;;5.47;3.88;;;;;;;;;;4898247;29;20074;-84
2022/04/20 04:33:40;;;;;;;9.93;4.07;;;;;;;;;;4894489;29;20146;-83
2022/04/20 04:36:07;;;;;;;5.53;3.50;;;;;;;;;;4911318;29;20052;-84
2022/04/20 04:38:33;;;;;;;5.18;3.60;;;;;;;;;;4907329;29;20048;-83
2022/04/20 04:40:59;;;;;;;8.43;3.78;;;;;;;;;;4908535;29;20161;-83
2022/04/20 04:43:26;;;;;;;9.00;4.40;;;;;;;;;;4906458;29;20501;-83
2022/04/20 04:48:36;;;;;;;6.82;4.10;;;;;;;;;;4906346;29;20047;-83
2022/04/20 04:51:03;;;;;;;12.75;5.38;;;;;;;;;;4888830;29;20048;-84
2022/04/20 04:53:30;;;;;;;6.63;3.95;;;;;;;;;;4904313;29;20043;-85
2022/04/20 04:55:56;;;;;;;6.32;4.13;;;;;;;;;;4879420;29;20047;-83
2022/04/20 04:58:32;;;;;;;5.53;4.32;;;;;;;;;;4891571;29;20441;-84
2022/04/20 05:00:59;;;;;;;9.13;4.43;;;;;;;;;;4890410;29;20222;-85
2022/04/20 05:03:31;;;;;;;5.30;3.80;;;;;;;;;;4880716;29;20445;-85
2022/04/20 05:05:57;;;;;;;5.88;4.15;;;;;;;;;;4917898;29;20130;-84
2022/04/20 05:08:23;;;;;;;5.72;4.10;;;;;;;;;;4910884;29;20064;-85
2022/04/20 05:10:49;;;;;;;9.50;4.18;;;;;;;;;;4914909;29;20044;-85
2022/04/20 05:13:16;;;;;;;6.15;4.25;;;;;;;;;;4907613;29;20799;-83
2022/04/20 05:15:42;;;;;;;4.57;4.15;;;;;;;;;;4908610;29;20052;-83
2022/04/20 05:18:08;;;;;;;6.05;4.30;;;;;;;;;;4911387;29;20047;-84
2022/04/20 05:20:34;;;;;;;6.60;4.65;;;;;;;;;;4907798;29;20423;-83
2022/04/20 05:23:00;;;;;;;5.82;4.35;;;;;;;;;;4907284;29;20052;-84
2022/04/20 05:25:26;;;;;;;5.47;4.25;;;;;;;;;;4907605;29;20043;-84
2022/04/20 05:27:53;;;;;;;10.10;4.32;;;;;;;;;;4909144;29;20036;-83
2022/04/20 05:30:19;;;;;;;7.47;4.82;;;;;;;;;;4909385;29;20164;-84
2022/04/20 05:32:45;;;;;;;6.50;4.35;;;;;;;;;;4911002;29;20505;-83
2022/04/20 05:35:11;;;;;;;7.35;4.88;;;;;;;;;;4908943;29;20067;-84
2022/04/20 05:43:07;;;;;;;6.68;4.40;;;;;;;;;;4908311;29;20421;-82
2022/04/20 05:45:43;;;;;;;7.90;4.40;;;;;;;;;;4894251;29;20079;-82
2022/04/20 05:48:14;;;;;;;6.60;4.13;;;;;;;;;;4908943;29;20060;-83
2022/04/20 05:50:41;;;;;;;7.82;4.50;;;;;;;;;;4908745;29;20090;-84
2022/04/20 05:53:09;;;;;;;7.18;4.10;;;;;;;;;;4904718;29;20028;-88
2022/04/20 05:55:36;;;;;;;4.88;3.65;;;;;;;;;;4910521;29;20421;-88
2022/04/20 05:58:02;;;;;;;7.15;4.15;;;;;;;;;;4912937;29;20044;-88
2022/04/20 06:00:28;;;;;;;7.10;4.00;;;;;;;;;;4909059;29;20047;-88
2022/04/20 06:02:55;;;;;;;7.80;4.28;;;;;;;;;;4893167;29;20590;-87
2022/04/20 06:05:22;;;;;;;6.70;4.30;;;;;;;;;;4876547;29;20056;-86
2022/04/20 06:07:48;;;;;;;7.60;4.60;;;;;;;;;;4910755;29;20040;-87
2022/04/20 06:10:15;;;;;;;5.50;4.28;;;;;;;;;;4875719;29;20461;-87
2022/04/20 06:12:41;;;;;;;9.70;4.65;;;;;;;;;;4908574;29;20151;-87
2022/04/20 06:15:08;;;;;;;5.45;4.40;;;;;;;;;;4909239;29;20104;-87
2022/04/20 06:17:34;;;;;;;6.25;3.67;;;;;;;;;;4891593;29;20052;-88
2022/04/20 06:20:01;;;;;;;5.38;3.80;;;;;;;;;;4910964;29;20088;-87
2022/04/20 06:22:27;;;;;;;9.10;4.25;;;;;;;;;;4910032;29;20047;-88
2022/04/20 06:24:53;;;;;;;5.75;4.00;;;;;;;;;;4912132;29;20216;-86
2022/04/20 06:27:19;;;;;;;4.18;3.45;;;;;;;;;;4906849;29;20393;-87
2022/04/20 06:29:48;;;;;;;8.20;4.43;;;;;;;;;;4893612;29;20062;-88
2022/04/20 06:32:16;;;;;;;9.48;4.45;;;;;;;;;;4907890;29;20139;-87
2022/04/20 06:34:42;;;;;;;6.47;4.57;;;;;;;;;;4893793;29;20477;-85
2022/04/20 06:37:08;;;;;;;5.80;3.72;;;;;;;;;;4909829;29;20056;-87
2022/04/20 06:39:34;;;;;;;5.60;3.58;;;;;;;;;;4909277;29;20580;-85
2022/04/20 06:42:01;;;;;;;5.47;3.83;;;;;;;;;;4913873;29;20044;-89
2022/04/20 06:44:27;;;;;;;6.38;4.13;;;;;;;;;;4927359;29;20056;-86
2022/04/20 06:46:54;;;;;;;8.05;4.20;;;;;;;;;;4928895;29;20079;-86
2022/04/20 06:49:21;;;;;;;6.68;4.18;;;;;;;;;;4906094;29;20044;-86
2022/04/20 07:00:25;;;;;;;;;;;;;;;;;;4912076;29;20063;-86
2022/04/20 07:02:59;;;;;;;10.60;3.83;;;;;;;;;;4915786;29;20375;-87
2022/04/20 07:05:25;;;;;;;7.00;3.70;;;;;;;;;;4912376;29;20127;-86
2022/04/20 07:07:51;;;;;;;3.92;3.50;;;;;;;;;;4909014;29;20079;-88
2022/04/20 07:10:17;;;;;;;5.38;4.13;;;;;;;;;;4859900;29;20048;-85
2022/04/20 07:12:43;;;;;;;4.35;3.88;;;;;;;;;;4915625;29;20102;-86
2022/04/20 07:15:09;;;;;;;5.63;4.07;;;;;;;;;;4927429;29;20106;-86
2022/04/20 07:17:35;;;;;;;7.18;4.18;;;;;;;;;;4912696;29;20078;-85
2022/04/20 07:20:06;;;;;;;5.85;3.40;;;;;;;;;;4916322;29;20052;-86
2022/04/20 07:22:33;;;;;;;6.25;3.35;;;;;;;;;;4917734;29;20119;-83
2022/04/20 07:25:00;;;;;;;5.82;3.88;;;;;;;;;;4894510;29;20051;-85
2022/04/20 07:27:26;;;;;;;5.72;3.42;;;;;;;;;;4878798;29;20893;-87
2022/04/20 07:29:52;;;;;;;3.92;3.47;;;;;;;;;;4910743;29;20040;-89
2022/04/20 07:32:18;;;;;;;6.68;3.42;;;;;;;;;;4916249;29;20074;-86
2022/04/20 07:34:44;;;;;;;4.80;2.97;;;;;;;;;;4928772;29;20043;-86
2022/04/20 07:37:10;;;;;;;7.45;3.20;;;;;;;;;;4895032;29;20195;-88
2022/04/20 07:39:36;;;;;;;6.32;2.88;;;;;;;;;;4877961;29;20163;-87
2022/04/20 07:42:03;;;;;;;7.28;3.00;;;;;;;;;;4901225;29;20044;-87
2022/04/20 07:44:29;;;;;;;5.35;3.20;;;;;;;;;;4897412;29;20048;-86
2022/04/20 07:46:55;;;;;;;4.60;3.70;;;;;;;;;;4883822;29;20134;-87
2022/04/20 07:52:06;;;;;;;8.18;3.33;;;;;;;;;;4898092;29;20044;-88
2022/04/20 07:54:32;;;;;;;5.55;3.47;;;;;;;;;;4904930;29;20056;-87
2022/04/20 07:57:03;;;;;;;6.80;3.53;;;;;;;;;;4913022;29;20083;-85
2022/04/20 07:59:29;;;;;;;3.72;2.97;;;;;;;;;;4893611;29;20048;-82
2022/04/20 08:01:56;;;;;;;6.93;3.10;;;;;;;;;;4880395;29;20048;-87
2022/04/20 08:04:22;;;;;;;5.85;3.40;;;;;;;;;;4911590;29;20599;-86
2022/04/20 08:06:48;;;;;;;7.28;2.90;;;;;;;;;;4909076;29;20127;-86
2022/04/20 08:09:14;;;;;;;4.05;2.97;;;;;;;;;;4909233;29;20043;-84
2022/04/20 08:11:40;;;;;;;4.60;3.03;;;;;;;;;;4909063;29;20047;-82
2022/04/20 08:14:10;;;;;;;3.65;2.45;;;;;;;;;;4907276;29;20480;-87
2022/04/20 08:16:36;;;;;;;5.30;2.60;;;;;;;;;;4902205;29;20158;-87
2022/04/20 08:19:02;;;;;;;3.90;2.55;;;;;;;;;;4904514;29;20045;-86
2022/04/20 08:21:28;;;;;;;2.53;2.05;;;;;;;;;;4903585;29;20044;-87
2022/04/20 08:23:54;;;;;;;3.20;2.08;;;;;;;;;;4906133;29;20040;-82
2022/04/20 08:26:20;;;;;;;10.82;2.00;;;;;;;;;;4895856;29;20052;-87
2022/04/20 08:28:46;;;;;;;3.75;1.83;;;;;;;;;;4881488;29;20100;-86
2022/04/20 08:31:16;;;;;;;2.50;1.98;;;;;;;;;;4904139;29;20128;-87
2022/04/20 08:33:44;;;;;;;4.90;2.30;;;;;;;;;;4906135;29;20054;-85
2022/04/20 08:36:13;;;;;;;6.78;1.98;;;;;;;;;;4887168;29;20048;-86
2022/04/20 08:38:40;;;;;;;3.60;2.03;;;;;;;;;;4896790;29;20080;-81
2022/04/20 08:41:07;;;;;;;4.32;2.30;;;;;;;;;;4898899;29;20045;-88
2022/04/20 08:43:33;;;;;;;2.33;1.80;;;;;;;;;;4893881;29;20062;-86
2022/04/20 08:46:03;;;;;;;3.88;1.77;;;;;;;;;;4899590;29;20059;-87
2022/04/20 08:48:29;;;;;;;5.10;2.10;;;;;;;;;;4896806;29;20499;-85
2022/04/20 08:50:58;;;;;;;3.83;1.80;;;;;;;;;;4906979;29;20040;-87
2022/04/20 08:53:24;;;;;;;2.53;2.17;;;;;;;;;;4912354;29;20098;-87
2022/04/20 08:57:15;;;;;;;2.88;2.10;;;;;;;;;;4911351;29;20076;-84
2022/04/20 08:58:38;;;;;;;9.57;2.28;;;;;;;;;;4912280;29;20040;-87
2022/04/20 09:01:04;;;;;;;3.05;1.67;;;;;;;;;;4907602;29;20080;-87
2022/04/20 09:03:31;;;;;;;7.00;2.00;;;;;;;;;;4906631;29;20044;-85
2022/04/20 09:05:57;;;;;;;2.80;2.00;;;;;;;;;;4898719;29;20056;-86
2022/04/20 09:08:25;;;;;;;2.65;1.92;;;;;;;;;;4895573;29;20424;-86
2022/04/20 09:10:51;;;;;;;8.30;1.80;;;;;;;;;;4896820;29;20228;-86
2022/04/20 09:13:18;;;;;;;2.55;1.60;;;;;;;;;;4893326;29;20685;-87
2022/04/20 09:15:44;;;;;;;4.20;1.88;;;;;;;;;;4904939;29;20087;-82
2022/04/20 09:18:11;;;;;;;5.03;1.45;;;;;;;;;;4876807;29;20057;-86
2022/04/20 09:20:38;;;;;;;1.67;1.52;;;;;;;;;;4887819;29;20083;-84
2022/04/20 09:23:07;;;;;;;3.67;1.48;;;;;;;;;;4878853;29;20044;-87
2022/04/20 09:25:37;;;;;;;5.03;1.73;;;;;;;;;;4860519;29;20057;-87
2022/04/20 09:28:04;;;;;;;5.43;2.75;;;;;;;;;;4881469;29;20048;-87
2022/04/20 09:30:38;;;;;;;2.33;1.60;;;;;;;;;;4879108;29;20154;-87
2022/04/20 09:33:07;;;;;;;4.32;1.92;;;;;;;;;;4881825;29;20120;-87
2022/04/20 09:35:40;;;;;;;2.85;2.00;;;;;;;;;;4876836;29;20045;-83
2022/04/20 09:38:07;;;;;;;2.38;1.58;;;;;;;;;;4890736;29;20526;-84
2022/04/20 09:40:34;;;;;;;5.22;1.85;;;;;;;;;;4881081;29;20078;-87
2022/04/20 09:43:06;;;;;;;2.67;1.58;;;;;;;;;;4883175;29;20092;-87
2022/04/20 09:45:33;;;;;;;5.65;1.85;;;;;;;;;;4881450;29;20092;-87
2022/04/20 09:51:06;;;;;;;2.22;1.63;;;;;;;;;;4893529;29;20472;-85
2022/04/20 09:53:33;;;;;;;4.50;1.73;;;;;;;;;;4888872;29;20116;-86
2022/04/20 09:56:14;;;;;;;2.42;1.70;;;;;;;;;;4893029;29;20132;-84
2022/04/20 09:58:40;;;;;;;3.40;1.70;;;;;;;;;;4871406;29;20143;-87
2022/04/20 10:01:06;;;;;;;1.83;1.55;;;;;;;;;;4880032;29;20047;-84
2022/04/20 10:03:33;;;;;;;2.70;1.35;;;;;;;;;;4887255;29;20051;-87
2022/04/20 10:06:00;;;;;;;1.88;1.67;;;;;;;;;;4886343;29;20154;-86
2022/04/20 10:08:27;;;;;;;6.22;1.60;;;;;;;;;;4883710;29;20037;-84
2022/04/20 10:10:54;;;;;;;2.05;1.63;;;;;;;;;;4880400;29;20148;-87
2022/04/20 10:13:22;;;;;;;8.32;1.77;;;;;;;;;;4864242;29;20055;-85
2022/04/20 10:16:08;;;;;;;1.33;1.20;;;;;;;;;;4894181;29;20052;-87
2022/04/20 10:18:37;;;;;;;1.20;1.10;;;;;;;;;;4883992;29;20052;-86
2022/04/20 10:21:04;;;;;;;2.45;1.40;;;;;;;;;;4881948;29;20041;-85
2022/04/20 10:23:30;;;;;;;2.00;1.20;;;;;;;;;;4889224;29;20083;-87
2022/04/20 10:26:10;;;;;;;2.00;1.33;;;;;;;;;;4889060;29;20055;-87
2022/04/20 10:28:36;;;;;;;1.13;1.02;;;;;;;;;;4895620;29;20059;-84
2022/04/20 10:31:14;;;;;;;4.22;1.20;;;;;;;;;;4895381;29;20123;-87
2022/04/20 10:33:41;;;;;;;2.15;1.10;;;;;;;;;;4895602;29;20045;-88
2022/04/20 10:36:14;;;;;;;2.63;0.90;;;;;;;;;;4904296;29;20124;-84
2022/04/20 10:38:40;;;;;;;3.10;0.90;;;;;;;;;;4862661;29;20053;-86
2022/04/20 10:41:06;;;;;;;3.70;0.90;;;;;;;;;;4876354;29;20045;-87
2022/04/20 10:43:34;;;;;;;3.72;1.10;;;;;;;;;;4889996;29;20072;-86
2022/04/20 10:46:03;;;;;;;3.05;1.10;;;;;;;;;;4877102;29;20368;-87
2022/04/20 10:48:48;;;;;;;1.27;0.90;;;;;;;;;;4894554;29;20048;-87
2022/04/20 10:51:24;;;;;;;1.50;1.05;;;;;;;;;;4889821;29;20048;-82
2022/04/20 10:53:51;;;;;;;1.90;1.35;;;;;;;;;;4891422;29;20046;-88
2022/04/20 10:56:18;;;;;;;3.63;1.05;;;;;;;;;;4891646;29;20040;-85
2022/04/20 10:59:07;;;;;;;1.85;1.10;;;;;;;;;;4890926;29;20450;-86
2022/04/20 11:01:53;;;;;;;1.85;1.05;;;;;;;;;;4890221;29;20454;-88
2022/04/20 11:04:32;;;;;;;2.35;1.15;;;;;;;;;;4856146;29;20080;-87
2022/04/20 11:06:59;;;;;;;1.73;1.00;;;;;;;;;;4877133;29;20620;-87
2022/04/20 11:09:45;;;;;;;2.70;1.10;;;;;;;;;;4882065;29;20128;-87
2022/04/20 11:21:03;;;;;;;1.77;1.02;;;;;;;;;;4888699;29;20061;-87
2022/04/20 11:23:48;;;;;;;3.95;1.10;;;;;;;;;;4866534;29;20044;-87
2022/04/20 11:26:15;;;;;;;1.98;1.20;;;;;;;;;;4873373;29;20063;-88
2022/04/20 11:28:41;;;;;;;4.68;1.38;;;;;;;;;;4889553;29;20033;-88
2022/04/20 11:31:09;;;;;;;1.92;0.93;;;;;;;;;;4884576;29;20096;-89
2022/04/20 11:33:35;;;;;;;1.30;0.80;;;;;;;;;;4858021;29;20040;-87
2022/04/20 11:36:01;;;;;;;1.13;1.02;;;;;;;;;;4886969;29;20527;-89
2022/04/20 11:38:44;;;;;;;1.20;0.85;;;;;;;;;;4894466;29;20076;-82
2022/04/20 11:41:11;;;;;;;1.35;1.15;;;;;;;;;;4888382;29;20051;-84
2022/04/20 11:43:38;;;;;;;2.90;1.20;;;;;;;;;;4886467;29;20135;-84
2022/04/20 11:46:04;;;;;;;1.00;0.90;;;;;;;;;;4890263;29;20071;-87
2022/04/20 11:48:32;;;;;;;3.53;1.13;;;;;;;;;;4859014;29;20471;-87
2022/04/20 11:51:08;;;;;;;1.33;1.23;;;;;;;;;;4882026;29;20497;-90
2022/04/20 11:53:43;;;;;;;0.90;0.90;;;;;;;;;;4890320;29;20445;-86
2022/04/20 11:56:10;;;;;;;3.20;1.00;;;;;;;;;;4889282;29;20052;-85
2022/04/20 11:58:37;;;;;;;2.33;1.05;;;;;;;;;;4891368;29;20095;-85
2022/04/20 12:01:04;;;;;;;4.60;1.08;;;;;;;;;;4895796;29;20068;-86
2022/04/20 12:03:31;;;;;;;1.60;1.20;;;;;;;;;;4885071;29;20072;-87
2022/04/20 12:06:01;;;;;;;1.73;1.10;;;;;;;;;;4890504;29;20196;-87
2022/04/20 12:08:33;;;;;;;3.10;1.70;;;;;;;;;;4895768;29;20049;-84
2022/04/20 12:11:05;;;;;;;2.20;1.42;;;;;;;;;;4885091;29;20100;-86
2022/04/20 12:13:31;;;;;;;2.50;1.55;;;;;;;;;;4889748;29;20064;-86
2022/04/20 12:16:04;;;;;;;4.20;1.70;;;;;;;;;;4890959;29;20509;-86
2022/04/20 12:18:37;;;;;;;2.03;1.67;;;;;;;;;;4889521;29;20084;-86
2022/04/20 12:21:05;;;;;;;1.73;1.63;;;;;;;;;;4889447;29;20079;-87
2022/04/20 12:23:33;;;;;;;1.88;1.60;;;;;;;;;;4896072;29;20048;-86
2022/04/20 12:26:01;;;;;;;2.58;1.80;;;;;;;;;;4905450;23;20088;-87
2022/04/20 12:28:38;;;;;;;5.07;1.70;;;;;;;;;;4912711;29;20130;-87
2022/04/20 12:31:04;;;;;;;2.15;1.95;;;;;;;;;;4910851;29;20127;-87
2022/04/20 12:33:31;;;;;;;4.55;2.55;;;;;;;;;;4926506;29;20047;-86
2022/04/20 12:36:00;;;;;;;6.05;2.40;;;;;;;;;;4926043;29;20130;-85
2022/04/20 12:38:27;;;;;;;4.45;2.35;;;;;;;;;;4921809;29;20044;-86
2022/04/20 12:40:53;;;;;;;5.68;2.80;;;;;;;;;;4929125;29;20388;-86
2022/04/20 12:43:19;;;;;;;6.68;2.63;;;;;;;;;;4928120;29;20075;-87
2022/04/20 12:45:46;;;;;;;7.45;2.83;;;;;;;;;;4928234;29;20051;-87
2022/04/20 12:48:12;;;;;;;6.38;2.60;;;;;;;;;;4910128;29;20048;-87
2022/04/20 12:50:39;;;;;;;5.70;2.90;;;;;;;;;;4927571;29;20056;-87
2022/04/20 12:53:06;;;;;;;6.78;3.33;;;;;;;;;;4926481;29;20523;-87
2022/04/20 13:04:14;;;;;;;4.47;2.80;;;;;;;;;;4925571;29;20091;-86
2022/04/20 13:06:40;;;;;;;5.90;2.63;;;;;;;;;;4929591;29;20145;-85
2022/04/20 13:09:06;;;;;;;2.92;2.15;;;;;;;;;;4931334;29;20042;-82
2022/04/20 13:11:32;;;;;;;6.40;2.80;;;;;;;;;;4883777;29;20445;-85
2022/04/20 13:13:58;;;;;;;5.53;2.78;;;;;;;;;;4930847;29;20043;-83
2022/04/20 13:16:25;;;;;;;4.25;2.72;;;;;;;;;;4915226;29;20094;-86
2022/04/20 13:18:58;;;;;;;8.15;3.35;;;;;;;;;;4914326;29;20103;-86
2022/04/20 13:21:29;;;;;;;6.43;3.47;;;;;;;;;;4915454;29;20059;-87
2022/04/20 13:23:56;;;;;;;5.72;3.35;;;;;;;;;;4917321;29;20044;-81
2022/04/20 13:29:07;;;;;;;4.93;3.05;;;;;;;;;;4931681;29;20097;-84
2022/04/20 13:31:33;;;;;;;4.82;3.00;;;;;;;;;;4930409;29;20048;-86
2022/04/20 13:33:59;;;;;;;5.88;3.22;;;;;;;;;;4932782;29;20048;-83
2022/04/20 13:36:25;;;;;;;6.35;3.47;;;;;;;;;;4931704;29;20107;-83
2022/04/20 13:38:52;;;;;;;5.75;3.05;;;;;;;;;;4915597;29;20159;-87
2022/04/20 13:41:22;;;;;;;10.05;3.20;;;;;;;;;;4880404;29;20767;-85
2022/04/20 13:43:48;;;;;;;4.53;3.25;;;;;;;;;;4932079;29;20443;-85
2022/04/20 13:46:22;;;;;;;15.15;3.45;;;;;;;;;;4931266;29;20039;-87
2022/04/20 13:48:48;;;;;;;8.35;3.15;;;;;;;;;;4927238;29;20047;-86
2022/04/20 13:53:59;;;;;;;5.70;3.53;;;;;;;;;;5070260;23;20066;-86
2022/04/20 13:59:47;;;;;;;7.40;4.30;;;;;;;;;;4949758;28;20046;-86
2022/04/20 14:02:14;;;;;;;5.82;4.70;;;;;;;;;;4932439;29;20074;-87
2022/04/20 14:04:42;;;;;;;4.65;3.78;;;;;;;;;;4937188;29;20039;-87
2022/04/20 14:07:08;;;;;;;10.48;4.70;;;;;;;;;;4922912;29;20138;-85
2022/04/20 14:09:35;;;;;;;8.48;5.40;;;;;;;;;;4931899;29;20043;-87
2022/04/20 14:12:02;;;;;;;5.88;4.45;;;;;;;;;;4943562;29;20098;-87
2022/04/20 14:14:28;;;;;;;5.00;4.40;;;;;;;;;;4930990;29;21738;-86
2022/04/20 14:16:57;;;;;;;4.40;4.00;;;;;;;;;;4909197;29;20048;-88
2022/04/20 14:19:24;;;;;;;5.38;4.68;;;;;;;;;;4942384;29;20156;-87
2022/04/20 14:21:54;;;;;;;8.52;5.03;;;;;;;;;;4946977;29;20047;-85
2022/04/20 14:24:20;;;;;;;5.53;4.47;;;;;;;;;;4926143;29;20053;-87
2022/04/20 14:32:19;;;;;;;6.38;4.95;;;;;;;;;;4929863;29;20149;-86
2022/04/20 14:34:47;;;;;;;11.10;4.93;;;;;;;;;;4945334;29;20575;-86
2022/04/20 14:37:14;;;;;;;6.22;4.53;;;;;;;;;;4944611;29;20101;-87
2022/04/20 14:39:41;;;;;;;9.02;5.13;;;;;;;;;;4940756;29;20073;-85
2022/04/20 14:42:07;;;;;;;6.10;4.68;;;;;;;;;;4945613;29;20051;-85
2022/04/20 14:44:34;;;;;;;6.90;4.50;;;;;;;;;;4935199;29;20098;-84
2022/04/20 14:47:01;;;;;;;5.25;4.70;;;;;;;;;;4913074;29;20059;-86
2022/04/20 14:49:27;;;;;;;9.20;4.53;;;;;;;;;;4920385;29;20058;-87
2022/04/20 14:51:53;;;;;;;6.90;4.75;;;;;;;;;;4949091;29;20805;-84
2022/04/20 14:54:20;;;;;;;6.60;5.43;;;;;;;;;;4946913;29;20126;-84
2022/04/20 14:56:46;;;;;;;6.70;5.18;;;;;;;;;;4960296;28;20427;-83
2022/04/20 15:02:18;;;;;;;7.28;5.28;;;;;;;;;;4938358;29;20107;-85
2022/04/20 15:04:44;;;;;;;7.63;4.30;;;;;;;;;;4945439;29;20122;-87
2022/04/20 15:07:10;;;;;;;5.25;4.10;;;;;;;;;;4949221;29;20043;-86
2022/04/20 15:09:45;;;;;;;8.18;3.70;;;;;;;;;;4945103;29;20405;-86
2022/04/20 15:12:12;;;;;;;4.75;3.45;;;;;;;;;;4950956;29;20419;-85
2022/04/20 15:14:39;;;;;;;5.60;3.90;;;;;;;;;;4948354;29;20529;-86
2022/04/20 15:17:05;;;;;;;4.93;3.60;;;;;;;;;;4943360;29;20051;-85
2022/04/20 15:19:31;;;;;;;6.85;3.92;;;;;;;;;;4932245;29;20043;-85
2022/04/20 15:21:58;;;;;;;7.70;3.58;;;;;;;;;;4937847;29;20118;-86
2022/04/20 15:24:24;;;;;;;9.40;3.58;;;;;;;;;;4931123;29;20055;-85
2022/04/20 15:26:52;;;;;;;5.88;3.80;;;;;;;;;;4937347;29;20045;-86
2022/04/20 15:29:18;;;;;;;8.98;4.20;;;;;;;;;;4934758;28;20055;-81
2022/04/20 15:31:44;;;;;;;4.25;3.80;;;;;;;;;;4945426;29;20039;-86
2022/04/20 15:34:11;;;;;;;6.05;3.83;;;;;;;;;;4943077;29;20580;-85
2022/04/20 15:36:38;;;;;;;7.30;3.90;;;;;;;;;;4924081;29;20158;-86
2022/04/20 15:39:10;;;;;;;3.40;3.10;;;;;;;;;;4931139;29;20070;-87
2022/04/20 15:41:41;;;;;;;9.55;3.50;;;;;;;;;;4938328;29;20055;-86
2022/04/20 15:44:07;;;;;;;9.80;3.88;;;;;;;;;;4941683;29;20063;-85
2022/04/20 15:46:33;;;;;;;5.85;4.38;;;;;;;;;;4948117;29;20030;-86
2022/04/20 15:48:59;;;;;;;9.65;4.28;;;;;;;;;;4935241;29;20039;-86